createdAt,value
2018-08-17T00:03:42.565Z,18.80
2018-08-17T00:06:10.467Z,18.20
2018-08-17T00:08:38.483Z,18.60
2018-08-17T00:11:06.456Z,18.50
2018-08-17T00:13:34.394Z,18.40
2018-08-17T00:20:57.770Z,18.70
2018-08-17T00:23:25.685Z,18.20
2018-08-17T00:30:49.638Z,18.40
2018-08-17T00:35:45.083Z,18.10
2018-08-17T00:38:13.014Z,18.60
2018-08-17T00:40:40.964Z,17.80
2018-08-17T00:43:08.917Z,18.00
2018-08-17T00:45:36.914Z,17.80
2018-08-17T00:48:06.151Z,17.60
2018-08-17T01:25:53.438Z,17.10
2018-08-17T01:28:21.424Z,17.20
2018-08-17T01:30:49.379Z,16.90
2018-08-17T01:33:17.378Z,17.00
2018-08-17T01:38:12.823Z,17.70
2018-08-17T01:40:40.793Z,16.70
2018-08-17T01:43:08.731Z,16.80
2018-08-17T01:45:36.659Z,16.80
2018-08-17T01:50:32.122Z,17.00
2018-08-17T01:53:00.424Z,16.70
2018-08-17T01:55:28.334Z,17.00
2018-08-17T01:57:56.293Z,16.70
2018-08-17T02:00:24.335Z,17.40
2018-08-17T02:02:52.357Z,16.90
2018-08-17T02:05:20.357Z,17.20
2018-08-17T02:07:48.294Z,16.80
2018-08-17T02:12:43.814Z,16.60
2018-08-17T02:15:11.897Z,16.50
2018-08-17T02:17:39.845Z,16.90
2018-08-17T02:30:03.953Z,16.40
2018-08-17T02:34:59.773Z,16.80
2018-08-17T02:42:23.172Z,17.10
2018-08-17T02:44:51.335Z,17.00
2018-08-17T02:47:19.358Z,16.90
2018-08-17T02:49:47.601Z,17.20
2018-08-17T02:59:40.783Z,17.50
2018-08-17T03:02:09.774Z,17.00
2018-08-17T03:04:37.938Z,17.60
2018-08-17T03:12:05.660Z,17.40
2018-08-17T03:17:01.424Z,17.30
2018-08-17T03:22:00.855Z,17.20
2018-08-17T03:24:29.856Z,17.10
2018-08-17T03:26:58.734Z,16.90
2018-08-17T03:29:27.939Z,17.10
2018-08-17T03:36:53.088Z,16.70
2018-08-17T03:41:52.062Z,17.30
2018-08-17T03:44:21.123Z,17.20
2018-08-17T03:46:50.028Z,17.20
2018-08-17T03:49:19.121Z,17.20
2018-08-17T03:51:47.962Z,17.40
2018-08-17T03:56:46.412Z,17.20
2018-08-17T03:59:17.456Z,16.90
2018-08-17T04:06:43.538Z,16.90
2018-08-17T04:09:12.624Z,17.30
2018-08-17T04:11:41.478Z,16.90
2018-08-17T04:14:09.997Z,17.40
2018-08-17T04:16:38.048Z,17.00
2018-08-17T04:19:06.232Z,16.90
2018-08-17T04:21:34.255Z,17.30
2018-08-17T04:26:29.998Z,16.70
2018-08-17T04:29:00.032Z,17.20
2018-08-17T04:36:25.941Z,17.30
2018-08-17T04:38:56.031Z,16.30
2018-08-17T04:41:24.876Z,17.00
2018-08-17T04:48:54.365Z,16.90
2018-08-17T04:51:23.260Z,17.00
2018-08-17T04:53:52.315Z,16.70
2018-08-17T04:56:21.566Z,16.60
2018-08-17T05:01:19.086Z,17.30
2018-08-17T05:06:16.670Z,17.30
2018-08-17T05:08:45.648Z,17.10
2018-08-17T05:11:14.572Z,17.40
2018-08-17T05:13:44.590Z,17.10
2018-08-17T05:16:13.460Z,17.50
2018-08-17T05:21:11.137Z,16.50
2018-08-17T05:23:40.111Z,18.00
2018-08-17T05:31:12.100Z,17.30
2018-08-17T05:33:40.988Z,17.80
2018-08-17T05:36:12.009Z,17.40
2018-08-17T05:46:05.728Z,17.70
2018-08-17T05:48:33.675Z,18.10
2018-08-17T05:58:26.469Z,18.50
2018-08-17T06:00:54.608Z,19.10
2018-08-17T06:03:22.626Z,18.90
2018-08-17T06:08:21.456Z,19.40
2018-08-17T06:10:49.693Z,19.30
2018-08-17T06:13:18.905Z,19.20
2018-08-17T06:15:47.911Z,19.50
2018-08-17T06:20:45.397Z,19.70
2018-08-17T06:23:14.234Z,19.80
2018-08-17T06:25:43.384Z,19.40
2018-08-17T06:28:12.238Z,19.40
2018-08-17T06:30:41.332Z,19.20
2018-08-17T06:33:10.201Z,19.50
2018-08-17T06:35:39.168Z,19.50
2018-08-17T06:38:08.084Z,19.30
2018-08-17T06:40:37.107Z,19.60
2018-08-17T06:43:06.191Z,19.60
2018-08-17T06:45:35.330Z,19.30
2018-08-17T06:48:04.320Z,19.60
2018-08-17T06:50:33.330Z,19.50
2018-08-17T06:53:02.171Z,19.40
2018-08-17T06:55:31.281Z,19.70
2018-08-17T06:58:00.144Z,19.70
2018-08-17T07:00:29.226Z,19.70
2018-08-17T07:02:58.135Z,20.10
2018-08-17T07:05:27.217Z,19.80
2018-08-17T07:07:56.478Z,19.10
2018-08-17T07:12:54.503Z,20.10
2018-08-17T07:15:25.520Z,20.00
2018-08-17T07:17:54.403Z,19.90
2018-08-17T07:20:23.340Z,20.00
2018-08-17T07:22:52.256Z,20.80
2018-08-17T07:25:21.292Z,20.20
2018-08-17T07:27:50.304Z,20.70
2018-08-17T07:32:48.605Z,21.00
2018-08-17T07:35:17.657Z,21.20
2018-08-17T07:37:46.504Z,21.10
2018-08-17T07:45:14.921Z,21.40
2018-08-17T07:47:43.931Z,21.00
2018-08-17T07:50:18.910Z,21.00
2018-08-17T07:55:22.597Z,21.10
2018-08-17T07:57:51.496Z,21.50
2018-08-17T08:00:21.503Z,21.70
2018-08-17T08:07:47.328Z,21.60
2018-08-17T08:10:16.384Z,22.30
2018-08-17T08:12:45.311Z,21.80
2018-08-17T08:15:15.309Z,21.50
2018-08-17T08:17:44.259Z,21.50
2018-08-17T08:20:24.840Z,20.00
2018-08-17T08:23:05.869Z,20.90
2018-08-17T08:28:04.437Z,20.80
2018-08-17T08:30:33.453Z,20.90
2018-08-17T08:33:02.595Z,20.60
2018-08-17T08:35:31.519Z,20.60
2018-08-17T08:38:00.454Z,21.20
2018-08-17T08:40:29.532Z,21.30
2018-08-17T08:42:58.777Z,21.40
2018-08-17T08:45:27.660Z,21.60
2018-08-17T08:50:25.529Z,22.20
2018-08-17T08:57:58.577Z,20.70
2018-08-17T09:02:56.218Z,21.80
2018-08-17T09:05:25.340Z,21.40
2018-08-17T09:07:54.370Z,21.80
2018-08-17T09:12:52.928Z,21.40
2018-08-17T09:20:18.925Z,20.90
2018-08-17T09:22:48.921Z,21.50
2018-08-17T09:25:17.920Z,21.70
2018-08-17T09:32:51.446Z,21.10
2018-08-17T09:37:48.956Z,21.30
2018-08-17T09:40:17.938Z,20.60
2018-08-17T09:45:19.477Z,20.50
2018-08-17T09:47:49.628Z,20.50
2018-08-17T09:50:18.667Z,20.20
2018-08-17T09:57:46.037Z,19.70
2018-08-17T10:00:14.924Z,20.20
2018-08-17T10:02:49.045Z,20.60
2018-08-17T10:05:23.307Z,20.20
2018-08-17T10:07:58.558Z,20.30
2018-08-17T10:10:27.616Z,20.70
2018-08-17T10:12:58.600Z,20.20
2018-08-17T10:22:55.432Z,21.00
2018-08-17T10:27:56.359Z,21.60
2018-08-17T10:30:26.024Z,21.60
2018-08-17T10:40:29.944Z,21.90
2018-08-17T10:50:32.850Z,22.10
2018-08-17T10:53:03.114Z,21.80
2018-08-17T10:55:40.361Z,21.70
2018-08-17T10:58:11.048Z,21.70
2018-08-17T11:15:40.463Z,22.30
2018-08-17T11:18:09.682Z,22.40
2018-08-17T11:20:40.726Z,22.30
2018-08-17T11:23:09.650Z,22.70
2018-08-17T11:25:38.723Z,23.10
2018-08-17T11:28:07.609Z,22.90
2018-08-17T11:30:36.665Z,23.00
2018-08-17T11:33:05.634Z,22.40
2018-08-17T11:35:34.696Z,22.40
2018-08-17T11:38:03.569Z,22.30
2018-08-17T11:40:36.409Z,22.30
2018-08-17T11:43:05.222Z,22.30
2018-08-17T11:45:40.662Z,23.10
2018-08-17T11:48:09.658Z,23.00
2018-08-17T11:50:42.837Z,24.20
2018-08-17T11:53:13.166Z,23.90
2018-08-17T11:58:11.690Z,23.60
2018-08-17T12:00:40.717Z,23.40
2018-08-17T12:03:10.240Z,23.80
2018-08-17T12:05:39.277Z,24.80
2018-08-17T12:08:08.263Z,24.60
2018-08-17T12:10:37.271Z,24.70
2018-08-17T12:13:12.891Z,24.30
2018-08-17T12:15:46.888Z,24.50
2018-08-17T12:18:16.209Z,24.10
2018-08-17T12:20:48.788Z,24.70
2018-08-17T12:23:17.673Z,23.90
2018-08-17T12:28:21.392Z,23.90
2018-08-17T12:31:02.141Z,24.90
2018-08-17T12:33:31.078Z,24.70
2018-08-17T12:36:00.128Z,25.60
2018-08-17T12:40:59.261Z,25.20
2018-08-17T12:43:33.482Z,24.40
2018-08-17T12:47:06.374Z,24.20
2018-08-17T12:49:42.988Z,24.30
2018-08-17T12:52:12.346Z,25.20
2018-08-17T13:02:17.762Z,25.30
2018-08-17T13:04:59.542Z,24.60
2018-08-17T13:07:28.431Z,25.10
2018-08-17T13:15:04.004Z,24.90
2018-08-17T13:17:38.103Z,24.50
2018-08-17T13:20:12.404Z,24.90
2018-08-17T13:22:47.094Z,24.10
2018-08-17T13:25:16.014Z,24.40
2018-08-17T13:27:51.588Z,24.30
2018-08-17T13:30:20.427Z,24.30
2018-08-17T13:32:52.821Z,24.80
2018-08-17T13:40:18.794Z,24.80
2018-08-17T13:45:24.033Z,25.20
2018-08-17T13:47:57.055Z,24.90
2018-08-17T13:53:04.385Z,25.10
2018-08-17T13:58:03.971Z,26.20
2018-08-17T14:00:32.964Z,26.60
2018-08-17T14:05:30.567Z,25.40
2018-08-17T14:07:59.580Z,24.80
2018-08-17T14:10:28.478Z,25.20
2018-08-17T14:12:57.476Z,25.30
2018-08-17T14:15:26.381Z,25.20
2018-08-17T14:18:01.770Z,26.20
2018-08-17T14:20:30.635Z,25.70
2018-08-17T14:23:01.723Z,25.50
2018-08-17T14:25:30.642Z,25.60
2018-08-17T14:28:00.633Z,25.10
2018-08-17T14:30:29.856Z,24.70
2018-08-17T14:32:58.853Z,24.50
2018-08-17T14:35:27.766Z,24.50
2018-08-17T14:38:06.861Z,24.10
2018-08-17T14:40:35.738Z,24.30
2018-08-17T14:45:34.313Z,25.00
2018-08-17T14:55:32.722Z,24.00
2018-08-17T15:00:30.325Z,23.90
2018-08-17T15:05:27.880Z,25.60
2018-08-17T15:08:00.863Z,25.70
2018-08-17T15:10:29.916Z,26.30
2018-08-17T15:15:31.321Z,26.10
2018-08-17T15:18:00.218Z,25.90
2018-08-17T15:20:32.187Z,25.90
2018-08-17T15:23:01.076Z,25.90
2018-08-17T15:25:39.054Z,25.60
2018-08-17T15:28:07.954Z,25.80
2018-08-17T15:33:07.503Z,25.70
2018-08-17T15:35:36.529Z,26.00
2018-08-17T15:38:05.459Z,25.50
2018-08-17T15:40:35.511Z,25.40
2018-08-17T15:43:09.718Z,24.20
2018-08-17T15:45:40.779Z,24.60
2018-08-17T15:48:10.990Z,23.90
2018-08-17T15:50:46.421Z,23.90
2018-08-17T15:53:15.379Z,23.60
2018-08-17T15:55:44.457Z,23.60
2018-08-17T15:58:13.406Z,24.40
2018-08-17T16:00:44.552Z,24.20
2018-08-17T16:03:13.910Z,23.90
2018-08-17T16:05:43.931Z,23.50
2018-08-17T16:08:12.902Z,22.90
2018-08-17T16:10:44.008Z,23.70
2018-08-17T16:13:13.130Z,23.50
2018-08-17T16:15:42.108Z,23.60
2018-08-17T16:18:11.061Z,22.70
2018-08-17T16:20:42.059Z,23.40
2018-08-17T16:30:36.854Z,23.20
2018-08-17T16:33:05.756Z,23.20
2018-08-17T16:35:34.768Z,23.20
2018-08-17T16:38:04.849Z,22.10
2018-08-17T16:40:39.991Z,23.50
2018-08-17T16:43:09.128Z,23.00
2018-08-17T16:45:38.111Z,23.70
2018-08-17T16:50:36.020Z,22.40
2018-08-17T16:53:04.955Z,22.90
2018-08-17T16:55:34.176Z,23.50
2018-08-17T17:00:33.667Z,22.70
2018-08-17T17:03:02.526Z,22.90
2018-08-17T17:05:31.518Z,22.70
2018-08-17T17:12:58.789Z,23.40
2018-08-17T17:15:28.832Z,23.60
2018-08-17T17:20:36.274Z,22.90
2018-08-17T17:23:07.241Z,23.20
2018-08-17T17:28:04.873Z,23.10
2018-08-17T17:31:10.581Z,23.40
2018-08-17T17:33:39.467Z,23.00
2018-08-17T17:38:36.903Z,22.10
2018-08-17T17:41:06.049Z,22.40
2018-08-17T17:43:34.986Z,22.00
2018-08-17T17:46:04.083Z,22.10
2018-08-17T17:48:33.016Z,22.10
2018-08-17T17:53:30.516Z,22.30
2018-08-17T17:56:04.883Z,21.90
2018-08-17T18:03:37.707Z,21.80
2018-08-17T18:06:07.936Z,21.80
2018-08-17T18:08:37.060Z,22.00
2018-08-17T18:11:09.113Z,22.20
2018-08-17T18:13:38.009Z,21.40
2018-08-17T18:16:07.032Z,21.60
2018-08-17T18:18:35.938Z,22.00
2018-08-17T18:21:05.358Z,21.50
2018-08-17T18:26:09.938Z,21.30
2018-08-17T18:31:07.387Z,21.10
2018-08-17T18:33:36.347Z,20.70
2018-08-17T18:36:05.478Z,20.60
2018-08-17T18:38:34.382Z,20.40
2018-08-17T18:41:03.416Z,20.60
2018-08-17T18:46:04.639Z,19.90
2018-08-17T18:51:02.026Z,19.80
2018-08-17T18:53:30.950Z,19.80
2018-08-17T18:55:59.974Z,19.70
2018-08-17T18:58:28.900Z,19.80
2018-08-17T19:05:55.348Z,18.40
2018-08-17T19:08:24.323Z,19.00
2018-08-17T19:15:54.939Z,18.90
2018-08-17T19:18:23.662Z,19.10
2018-08-17T19:20:51.763Z,18.80
2018-08-17T19:28:17.117Z,18.60
2018-08-17T19:30:45.307Z,18.70
2018-08-17T19:35:44.568Z,18.50
2018-08-17T19:38:12.654Z,17.80
2018-08-17T19:43:08.446Z,17.80
2018-08-17T19:45:37.607Z,17.80
2018-08-17T19:48:05.637Z,17.30
2018-08-17T19:50:35.826Z,18.00
2018-08-17T19:53:03.877Z,17.80
2018-08-17T19:57:59.605Z,17.70
2018-08-17T20:00:27.807Z,17.40
2018-08-17T20:02:56.160Z,17.60
2018-08-17T20:05:24.312Z,17.60
2018-08-17T20:10:21.064Z,17.60
2018-08-17T20:15:16.756Z,17.00
2018-08-17T20:20:24.374Z,16.80
2018-08-17T20:22:57.504Z,16.50
2018-08-17T20:25:25.552Z,16.50
2018-08-17T20:30:22.666Z,16.60
2018-08-17T20:32:51.280Z,16.80
2018-08-17T20:35:19.373Z,16.50
2018-08-17T20:40:18.477Z,16.30
2018-08-17T20:55:20.737Z,15.90
2018-08-17T20:57:53.429Z,15.80
2018-08-17T21:02:52.432Z,15.80
2018-08-17T21:05:21.476Z,15.90
2018-08-17T21:07:50.811Z,15.90
2018-08-17T21:10:20.023Z,15.80
2018-08-17T21:12:49.320Z,16.10
2018-08-17T21:15:18.692Z,15.90
2018-08-17T21:27:45.176Z,15.40
2018-08-17T21:32:42.662Z,15.30
2018-08-17T21:35:11.627Z,15.20
2018-08-17T21:37:40.723Z,15.20
2018-08-17T21:47:40.505Z,15.20
2018-08-17T21:52:44.237Z,15.30
2018-08-17T21:57:42.111Z,14.90
2018-08-17T22:02:43.141Z,15.10
2018-08-17T22:05:16.432Z,15.10
2018-08-17T22:07:45.328Z,15.20
2018-08-17T22:10:15.399Z,15.30
2018-08-17T22:12:44.282Z,14.90
2018-08-17T22:15:12.450Z,14.90
2018-08-17T22:17:41.190Z,14.80
2018-08-17T22:22:39.366Z,14.30
2018-08-17T22:27:44.677Z,14.50
2018-08-17T22:30:22.858Z,14.30
2018-08-17T22:32:51.861Z,14.50
2018-08-17T22:37:49.454Z,14.30
2018-08-17T22:40:18.535Z,14.50
2018-08-17T22:45:21.142Z,14.30
2018-08-17T22:47:50.005Z,14.40
2018-08-17T22:50:20.118Z,14.40
2018-08-17T22:52:49.009Z,14.60
2018-08-17T23:00:19.406Z,14.20
2018-08-17T23:02:49.620Z,14.50
2018-08-17T23:05:22.203Z,14.50
2018-08-17T23:07:51.166Z,14.20
2018-08-17T23:12:51.935Z,14.40
2018-08-17T23:17:52.723Z,13.90
2018-08-17T23:20:27.111Z,13.70
2018-08-17T23:22:57.264Z,13.90
2018-08-17T23:25:26.374Z,14.20
2018-08-17T23:30:24.083Z,14.20
2018-08-17T23:32:52.980Z,13.70
2018-08-17T23:35:22.084Z,13.70
2018-08-17T23:37:51.064Z,13.90
2018-08-17T23:40:20.223Z,13.40
2018-08-17T23:42:49.097Z,13.50
2018-08-17T23:50:16.567Z,13.70
2018-08-17T23:52:45.508Z,13.70
2018-08-17T23:55:16.597Z,13.50
2018-08-17T23:57:45.514Z,13.50
